createdAt,value
2022-12-09T00:01:12.220Z,3.55
2022-12-09T00:03:35.583Z,3.50
2022-12-09T00:05:58.216Z,3.55
2022-12-09T00:08:21.330Z,3.63
2022-12-09T00:10:45.068Z,3.53
2022-12-09T00:13:07.745Z,3.48
2022-12-09T00:15:30.620Z,3.48
2022-12-09T00:17:53.327Z,3.57
2022-12-09T00:20:16.069Z,3.51
2022-12-09T00:22:38.877Z,3.57
2022-12-09T00:25:01.830Z,3.58
2022-12-09T00:27:24.507Z,3.50
2022-12-09T00:29:47.856Z,3.43
2022-12-09T00:32:10.953Z,3.50
2022-12-09T00:34:33.878Z,3.50
2022-12-09T00:36:56.674Z,3.40
2022-12-09T00:39:19.597Z,3.44
2022-12-09T00:41:42.593Z,3.46
2022-12-09T00:44:05.544Z,3.47
2022-12-09T00:46:28.215Z,3.54
2022-12-09T00:48:51.005Z,3.57
2022-12-09T00:51:19.731Z,3.61
2022-12-09T00:53:42.582Z,3.57
2022-12-09T00:56:06.082Z,3.58
2022-12-09T00:58:28.662Z,3.55
2022-12-09T01:00:53.893Z,3.58
2022-12-09T01:03:18.611Z,3.60
2022-12-09T01:05:42.431Z,3.58
2022-12-09T01:08:06.284Z,3.68
2022-12-09T01:10:28.945Z,3.61
2022-12-09T01:12:51.768Z,3.67
2022-12-09T01:15:14.503Z,3.73
2022-12-09T01:17:38.045Z,3.88
2022-12-09T01:20:00.831Z,3.82
2022-12-09T01:22:23.866Z,3.95
2022-12-09T01:24:47.995Z,3.78
2022-12-09T01:27:10.605Z,3.77
2022-12-09T01:29:33.492Z,3.65
2022-12-09T01:31:56.463Z,3.55
2022-12-09T01:34:19.337Z,3.64
2022-12-09T01:36:42.267Z,3.55
2022-12-09T01:39:06.404Z,3.51
2022-12-09T01:41:29.550Z,3.64
2022-12-09T01:44:26.018Z,3.64
2022-12-09T01:46:54.903Z,3.61
2022-12-09T01:49:28.245Z,3.63
2022-12-09T01:52:15.753Z,3.60
2022-12-09T01:54:40.488Z,3.74
2022-12-09T01:57:03.267Z,3.84
2022-12-09T01:59:27.162Z,3.74
2022-12-09T02:01:53.214Z,3.74
2022-12-09T02:04:16.466Z,3.64
2022-12-09T02:06:39.404Z,3.53
2022-12-09T02:09:05.947Z,3.54
2022-12-09T02:12:10.559Z,3.57
2022-12-09T02:14:56.107Z,3.50
2022-12-09T02:17:48.915Z,3.44
2022-12-09T02:20:27.573Z,3.47
2022-12-09T02:23:32.548Z,3.47
2022-12-09T02:26:01.674Z,3.47
2022-12-09T02:28:30.281Z,3.53
2022-12-09T02:31:37.967Z,3.55
2022-12-09T02:34:15.998Z,3.43
2022-12-09T02:36:54.009Z,3.47
2022-12-09T02:39:17.058Z,3.41
2022-12-09T02:41:45.543Z,3.48
2022-12-09T02:44:13.636Z,3.51
2022-12-09T02:46:36.981Z,3.53
2022-12-09T02:49:05.006Z,3.47
2022-12-09T02:51:33.150Z,3.55
2022-12-09T02:54:04.018Z,3.60
2022-12-09T02:56:29.572Z,3.60
2022-12-09T02:58:52.420Z,3.77
2022-12-09T03:01:50.042Z,4.01
2022-12-09T03:04:20.022Z,3.68
2022-12-09T03:06:49.196Z,3.65
2022-12-09T03:09:18.499Z,3.68
2022-12-09T03:11:41.535Z,3.68
2022-12-09T03:14:09.182Z,3.79
2022-12-09T03:16:36.158Z,3.78
2022-12-09T03:19:05.362Z,3.73
2022-12-09T03:21:31.768Z,3.64
2022-12-09T03:23:56.311Z,3.73
2022-12-09T03:26:20.146Z,3.67
2022-12-09T03:28:49.241Z,3.67
2022-12-09T03:31:16.476Z,3.67
2022-12-09T03:33:42.695Z,3.64
2022-12-09T03:36:09.598Z,3.68
2022-12-09T03:38:37.280Z,3.63
2022-12-09T03:41:21.764Z,3.55
2022-12-09T03:43:53.097Z,3.60
2022-12-09T03:46:15.858Z,3.63
2022-12-09T03:48:39.069Z,3.86
2022-12-09T03:51:10.560Z,4.07
2022-12-09T03:53:40.245Z,4.02
2022-12-09T03:56:15.450Z,3.85
2022-12-09T03:58:41.167Z,3.78
2022-12-09T04:01:04.144Z,3.74
2022-12-09T04:03:27.524Z,3.71
2022-12-09T04:05:51.260Z,3.73
2022-12-09T04:08:16.193Z,3.70
2022-12-09T04:10:38.857Z,3.63
2022-12-09T04:13:01.491Z,3.61
2022-12-09T04:15:24.257Z,3.73
2022-12-09T04:17:47.003Z,3.75
2022-12-09T04:20:10.682Z,3.79
2022-12-09T04:22:33.610Z,3.75
2022-12-09T04:24:57.995Z,3.70
2022-12-09T04:27:21.677Z,3.85
2022-12-09T04:29:45.748Z,3.85
2022-12-09T04:32:08.610Z,3.86
2022-12-09T04:34:33.217Z,3.91
2022-12-09T04:36:56.216Z,3.74
2022-12-09T04:39:19.675Z,3.82
2022-12-09T04:41:42.596Z,4.01
2022-12-09T04:44:05.710Z,3.82
2022-12-09T04:46:29.071Z,3.93
2022-12-09T04:48:52.046Z,3.81
2022-12-09T04:51:16.445Z,3.79
2022-12-09T04:53:39.476Z,3.85
2022-12-09T04:56:07.843Z,4.06
2022-12-09T04:58:30.707Z,3.85
2022-12-09T05:00:53.786Z,3.75
2022-12-09T05:03:16.453Z,3.67
2022-12-09T05:05:40.915Z,3.71
2022-12-09T05:08:04.060Z,3.65
2022-12-09T05:10:27.170Z,3.67
2022-12-09T05:12:50.217Z,3.61
2022-12-09T05:15:13.363Z,3.61
2022-12-09T05:17:36.002Z,3.81
2022-12-09T05:19:59.230Z,3.77
2022-12-09T05:22:21.832Z,3.70
2022-12-09T05:24:46.878Z,3.71
2022-12-09T05:27:09.833Z,3.82
2022-12-09T05:29:32.563Z,3.84
2022-12-09T05:31:55.362Z,3.82
2022-12-09T05:34:18.549Z,3.82
2022-12-09T05:36:41.587Z,3.85
2022-12-09T05:39:04.947Z,3.79
2022-12-09T05:41:27.927Z,3.85
2022-12-09T05:43:51.803Z,3.79
2022-12-09T05:46:15.766Z,3.84
2022-12-09T05:48:39.084Z,3.99
2022-12-09T05:51:08.046Z,3.96
2022-12-09T05:53:31.616Z,3.89
2022-12-09T05:55:54.315Z,3.88
2022-12-09T05:58:17.859Z,3.92
2022-12-09T06:00:40.829Z,4.03
2022-12-09T06:03:03.803Z,4.01
2022-12-09T06:05:27.292Z,4.22
2022-12-09T06:07:50.553Z,4.16
2022-12-09T06:10:14.188Z,4.19
2022-12-09T06:12:37.147Z,4.19
2022-12-09T06:15:00.341Z,4.34
2022-12-09T06:17:23.556Z,4.22
2022-12-09T06:19:46.803Z,4.28
2022-12-09T06:22:10.575Z,4.43
2022-12-09T06:24:35.259Z,4.44
2022-12-09T06:26:58.483Z,4.64
2022-12-09T06:29:21.414Z,4.68
2022-12-09T06:31:44.283Z,4.61
2022-12-09T06:34:07.522Z,4.77
2022-12-09T06:36:32.055Z,4.88
2022-12-09T06:38:57.942Z,4.88
2022-12-09T06:41:25.195Z,4.74
2022-12-09T06:43:48.946Z,4.49
2022-12-09T06:46:17.143Z,4.50
2022-12-09T06:48:40.396Z,4.67
2022-12-09T06:51:03.898Z,4.65
2022-12-09T06:53:28.330Z,4.72
2022-12-09T06:55:51.227Z,4.61
2022-12-09T06:58:14.020Z,4.67
2022-12-09T07:00:37.622Z,4.71
2022-12-09T07:03:01.138Z,4.60
2022-12-09T07:05:26.096Z,4.67
2022-12-09T07:07:52.187Z,4.64
2022-12-09T07:10:15.291Z,4.64
2022-12-09T07:12:40.163Z,4.62
2022-12-09T07:15:03.221Z,4.62
2022-12-09T07:17:26.307Z,4.65
2022-12-09T07:19:50.619Z,4.64
2022-12-09T07:22:13.964Z,4.78
2022-12-09T07:24:38.840Z,4.79
2022-12-09T07:27:07.575Z,4.91
2022-12-09T07:32:10.871Z,4.85
2022-12-09T07:34:34.103Z,4.88
2022-12-09T07:36:57.314Z,4.95
2022-12-09T07:39:21.766Z,4.92
2022-12-09T07:41:45.461Z,4.95
2022-12-09T07:44:08.772Z,4.98
2022-12-09T07:46:31.738Z,5.00
2022-12-09T07:48:57.361Z,5.00
2022-12-09T07:51:22.277Z,4.98
2022-12-09T07:53:46.088Z,4.93
2022-12-09T07:56:17.761Z,4.95
2022-12-09T07:58:41.744Z,5.05
2022-12-09T08:01:13.358Z,4.99
2022-12-09T08:03:36.911Z,5.00
2022-12-09T08:06:00.326Z,4.99
2022-12-09T08:08:23.652Z,4.98
2022-12-09T08:10:47.061Z,4.98
2022-12-09T08:13:10.985Z,5.00
2022-12-09T08:15:33.971Z,5.05
2022-12-09T08:17:57.309Z,5.05
2022-12-09T08:20:25.200Z,4.96
2022-12-09T08:22:52.467Z,5.00
2022-12-09T08:25:15.747Z,5.05
2022-12-09T08:27:38.935Z,5.06
2022-12-09T08:30:02.532Z,5.02
2022-12-09T08:32:25.835Z,4.98
2022-12-09T08:34:52.565Z,4.98
2022-12-09T08:37:15.287Z,5.00
2022-12-09T08:39:38.674Z,5.06
2022-12-09T08:42:01.621Z,5.11
2022-12-09T08:44:24.713Z,5.16
2022-12-09T08:46:50.245Z,5.30
2022-12-09T08:49:19.195Z,5.37
2022-12-09T08:51:42.783Z,5.43
2022-12-09T08:54:06.422Z,5.43
2022-12-09T08:56:29.949Z,5.50
2022-12-09T08:58:54.069Z,5.48
2022-12-09T09:01:20.351Z,5.54
2022-12-09T09:03:43.901Z,5.43
2022-12-09T09:06:10.860Z,5.44
2022-12-09T09:08:34.335Z,5.39
2022-12-09T09:10:57.649Z,5.37
2022-12-09T09:13:20.719Z,5.29
2022-12-09T09:15:43.711Z,5.29
2022-12-09T09:18:06.986Z,5.35
2022-12-09T09:20:30.221Z,5.37
2022-12-09T09:22:58.086Z,5.36
2022-12-09T09:25:25.571Z,5.27
2022-12-09T09:27:48.498Z,5.23
2022-12-09T09:30:13.301Z,5.23
2022-12-09T09:32:37.902Z,5.19
2022-12-09T09:35:01.347Z,5.22
2022-12-09T09:37:24.530Z,5.30
2022-12-09T09:39:47.361Z,5.30
2022-12-09T09:42:25.377Z,5.22
2022-12-09T09:44:50.782Z,5.26
2022-12-09T09:47:31.618Z,5.46
2022-12-09T09:50:28.481Z,5.32
2022-12-09T09:52:53.907Z,5.11
2022-12-09T09:55:23.953Z,5.19
2022-12-09T09:57:56.866Z,5.30
2022-12-09T10:00:23.749Z,5.23
2022-12-09T10:03:01.062Z,5.22
2022-12-09T10:05:32.833Z,5.13
2022-12-09T10:08:16.440Z,5.11
2022-12-09T10:11:11.886Z,5.13
2022-12-09T10:13:55.274Z,5.15
2022-12-09T10:16:24.166Z,5.06
2022-12-09T10:19:19.739Z,5.11
2022-12-09T10:21:45.342Z,5.16
2022-12-09T10:24:27.104Z,5.19
2022-12-09T10:27:12.777Z,5.18
2022-12-09T10:29:59.304Z,5.20
2022-12-09T10:32:26.113Z,5.19
2022-12-09T10:34:49.661Z,5.25
2022-12-09T10:37:39.534Z,5.20
2022-12-09T10:40:12.130Z,5.25
2022-12-09T10:43:02.969Z,5.18
2022-12-09T10:45:35.710Z,5.23
2022-12-09T10:48:21.121Z,5.25
2022-12-09T10:50:44.681Z,5.25
2022-12-09T10:53:16.778Z,5.26
2022-12-09T10:55:49.701Z,5.23
2022-12-09T10:58:26.233Z,5.25
2022-12-09T11:01:05.475Z,5.25
2022-12-09T11:03:32.465Z,5.35
2022-12-09T11:05:58.128Z,5.40
2022-12-09T11:08:24.130Z,5.33
2022-12-09T11:10:50.222Z,5.40
2022-12-09T11:13:17.504Z,5.35
2022-12-09T11:15:45.086Z,5.43
2022-12-09T11:18:19.217Z,5.27
2022-12-09T11:20:42.930Z,5.29
2022-12-09T11:23:18.292Z,5.26
2022-12-09T11:26:00.332Z,5.30
2022-12-09T11:29:00.845Z,5.26
2022-12-09T11:31:33.369Z,5.29
2022-12-09T11:34:03.405Z,5.35
2022-12-09T11:36:43.975Z,5.36
2022-12-09T11:39:19.768Z,5.32
2022-12-09T11:42:08.096Z,5.33
2022-12-09T11:44:36.612Z,5.35
2022-12-09T11:47:04.563Z,5.40
2022-12-09T11:49:29.832Z,5.37
2022-12-09T11:52:19.072Z,5.42
2022-12-09T11:54:51.367Z,5.35
2022-12-09T11:57:46.276Z,5.27
2022-12-09T12:00:35.711Z,5.30
2022-12-09T12:03:20.839Z,5.32
2022-12-09T12:05:51.345Z,5.35
2022-12-09T12:08:48.131Z,5.33
2022-12-09T12:11:17.348Z,5.26
2022-12-09T12:13:48.632Z,5.27
2022-12-09T12:16:23.178Z,5.27
2022-12-09T12:18:59.965Z,5.29
2022-12-09T12:21:51.214Z,5.23
2022-12-09T12:24:47.749Z,5.29
2022-12-09T12:27:25.197Z,5.35
2022-12-09T12:30:12.560Z,5.39
2022-12-09T12:33:17.912Z,5.44
2022-12-09T12:36:14.476Z,5.46
2022-12-09T12:38:58.725Z,5.54
2022-12-09T12:41:37.048Z,5.46
2022-12-09T12:44:27.238Z,5.47
2022-12-09T12:47:17.838Z,5.44
2022-12-09T12:49:58.601Z,5.43
2022-12-09T12:52:55.731Z,5.40
2022-12-09T12:55:28.325Z,5.43
2022-12-09T12:58:13.509Z,5.39
2022-12-09T13:00:47.522Z,5.32
2022-12-09T13:03:25.584Z,5.33
2022-12-09T13:05:52.343Z,5.30
2022-12-09T13:08:26.520Z,5.37
2022-12-09T13:10:53.632Z,5.42
2022-12-09T13:13:19.218Z,5.43
2022-12-09T13:15:46.773Z,5.36
2022-12-09T13:18:17.339Z,5.36
2022-12-09T13:20:52.471Z,5.39
2022-12-09T13:23:35.114Z,5.44
2022-12-09T13:26:07.053Z,5.36
2022-12-09T13:29:03.356Z,5.35
2022-12-09T13:31:30.645Z,5.33
2022-12-09T13:34:16.147Z,5.35
2022-12-09T13:36:47.044Z,5.40
2022-12-09T13:39:11.933Z,5.40
2022-12-09T13:41:54.526Z,5.42
2022-12-09T13:44:19.071Z,5.40
2022-12-09T13:46:43.027Z,5.46
2022-12-09T13:49:18.615Z,5.46
2022-12-09T13:51:48.343Z,5.47
2022-12-09T13:54:16.648Z,5.46
2022-12-09T13:56:39.951Z,5.50
2022-12-09T13:59:28.700Z,5.46
2022-12-09T14:02:30.906Z,5.42
2022-12-09T14:05:19.939Z,5.46
2022-12-09T14:07:48.361Z,5.43
2022-12-09T14:10:45.363Z,5.48
2022-12-09T14:13:34.976Z,5.51
2022-12-09T14:16:12.663Z,5.53
2022-12-09T14:18:35.777Z,5.56
2022-12-09T14:21:19.804Z,5.54
2022-12-09T14:24:08.869Z,5.43
2022-12-09T14:26:36.436Z,5.40
2022-12-09T14:28:59.382Z,5.37
2022-12-09T14:31:44.078Z,5.33
2022-12-09T14:34:36.491Z,5.36
2022-12-09T14:37:30.343Z,5.33
2022-12-09T14:40:20.287Z,5.30
2022-12-09T14:42:46.455Z,5.29
2022-12-09T14:45:29.344Z,5.32
2022-12-09T14:47:52.225Z,5.33
2022-12-09T14:50:22.081Z,5.30
2022-12-09T14:53:02.983Z,5.27
2022-12-09T14:55:27.276Z,5.32
2022-12-09T14:57:51.228Z,5.26
2022-12-09T15:00:35.017Z,5.22
2022-12-09T15:05:54.134Z,5.25
2022-12-09T15:08:36.980Z,5.22
2022-12-09T15:11:18.316Z,5.22
2022-12-09T15:13:44.008Z,5.23
2022-12-09T15:16:11.877Z,5.25
2022-12-09T15:18:38.560Z,5.26
2022-12-09T15:21:04.418Z,5.20
2022-12-09T15:23:40.980Z,5.22
2022-12-09T15:26:32.216Z,5.20
2022-12-09T15:28:56.660Z,5.22
2022-12-09T15:31:22.735Z,5.23
2022-12-09T15:33:51.397Z,5.30
2022-12-09T15:36:15.877Z,5.29
2022-12-09T15:38:45.058Z,5.25
2022-12-09T15:41:28.202Z,5.20
2022-12-09T15:43:55.194Z,5.25
2022-12-09T15:46:18.507Z,5.27
2022-12-09T15:48:46.834Z,5.26
2022-12-09T15:51:16.064Z,5.18
2022-12-09T15:53:43.304Z,5.16
2022-12-09T15:56:15.376Z,5.26
2022-12-09T15:58:51.436Z,5.23
2022-12-09T16:01:30.703Z,5.26
2022-12-09T16:03:55.675Z,5.27
2022-12-09T16:06:28.514Z,5.26
2022-12-09T16:08:51.165Z,5.30
2022-12-09T16:11:14.203Z,5.29
2022-12-09T16:13:56.367Z,5.26
2022-12-09T16:16:27.052Z,5.25
2022-12-09T16:18:50.416Z,5.18
2022-12-09T16:21:28.997Z,5.19
2022-12-09T16:23:55.544Z,5.22
2022-12-09T16:26:35.209Z,5.23
2022-12-09T16:29:01.802Z,5.27
2022-12-09T16:31:24.722Z,5.33
2022-12-09T16:33:49.542Z,5.32
2022-12-09T16:36:22.374Z,5.37
2022-12-09T16:39:17.658Z,5.33
2022-12-09T16:41:52.491Z,5.37
2022-12-09T16:44:19.889Z,5.33
2022-12-09T16:46:42.797Z,5.25
2022-12-09T16:49:05.967Z,5.23
2022-12-09T16:51:28.531Z,5.22
2022-12-09T16:53:52.605Z,5.29
2022-12-09T16:56:25.727Z,5.25
2022-12-09T16:58:48.887Z,5.22
2022-12-09T17:01:14.768Z,5.18
2022-12-09T17:03:44.578Z,5.19
2022-12-09T17:06:10.034Z,5.20
2022-12-09T17:08:33.349Z,5.20
2022-12-09T17:10:56.254Z,5.20
2022-12-09T17:13:18.989Z,5.25
2022-12-09T17:15:44.564Z,5.20
2022-12-09T17:18:08.312Z,5.19
2022-12-09T17:20:31.644Z,5.16
2022-12-09T17:22:58.477Z,5.19
2022-12-09T17:25:21.257Z,5.19
2022-12-09T17:27:44.217Z,5.22
2022-12-09T17:30:09.087Z,5.27
2022-12-09T17:32:31.811Z,5.25
2022-12-09T17:34:54.923Z,5.32
2022-12-09T17:37:17.804Z,5.30
2022-12-09T17:39:40.406Z,5.35
2022-12-09T17:42:03.652Z,5.39
2022-12-09T17:44:26.532Z,5.36
2022-12-09T17:46:50.692Z,5.54
2022-12-09T17:49:13.808Z,5.54
2022-12-09T17:51:36.807Z,5.44
2022-12-09T17:54:01.469Z,5.40
2022-12-09T17:56:24.569Z,5.42
2022-12-09T17:58:48.755Z,5.39
2022-12-09T18:01:20.636Z,5.32
2022-12-09T18:04:04.447Z,5.35
2022-12-09T18:06:31.730Z,5.42
2022-12-09T18:08:54.761Z,5.47
2022-12-09T18:11:17.668Z,5.53
2022-12-09T18:13:40.589Z,5.51
2022-12-09T18:16:09.281Z,5.53
2022-12-09T18:18:31.993Z,5.56
2022-12-09T18:21:02.288Z,5.60
2022-12-09T18:23:25.055Z,5.65
2022-12-09T18:25:48.810Z,5.64
2022-12-09T18:28:11.589Z,5.71
2022-12-09T18:30:34.797Z,5.81
2022-12-09T18:32:57.613Z,5.78
2022-12-09T18:35:20.234Z,5.79
2022-12-09T18:37:43.115Z,5.83
2022-12-09T18:40:07.190Z,5.84
2022-12-09T18:42:30.086Z,5.78
2022-12-09T18:44:52.774Z,5.74
2022-12-09T18:47:15.525Z,5.70
2022-12-09T18:49:38.445Z,5.65
2022-12-09T18:52:02.096Z,5.65
2022-12-09T18:54:27.702Z,5.71
2022-12-09T18:56:51.881Z,5.65
2022-12-09T18:59:14.973Z,5.65
2022-12-09T19:01:41.473Z,5.67
2022-12-09T19:04:08.812Z,5.65
2022-12-09T19:06:35.494Z,5.65
2022-12-09T19:09:04.125Z,5.60
2022-12-09T19:11:29.056Z,5.63
2022-12-09T19:13:53.474Z,5.65
2022-12-09T19:16:17.148Z,5.63
2022-12-09T19:18:40.080Z,5.65
2022-12-09T19:21:16.264Z,5.65
2022-12-09T19:23:40.525Z,5.70
2022-12-09T19:26:03.624Z,5.68
2022-12-09T19:28:26.406Z,5.61
2022-12-09T19:30:50.069Z,5.75
2022-12-09T19:33:13.153Z,5.70
2022-12-09T19:35:36.498Z,5.75
2022-12-09T19:38:01.636Z,5.79
2022-12-09T19:40:24.618Z,5.78
2022-12-09T19:42:47.293Z,5.79
2022-12-09T19:45:13.918Z,5.75
2022-12-09T19:47:37.699Z,5.73
2022-12-09T19:50:00.626Z,5.67
2022-12-09T19:52:23.538Z,5.65
2022-12-09T19:54:46.398Z,5.73
2022-12-09T19:57:09.317Z,5.70
2022-12-09T19:59:32.215Z,5.75
2022-12-09T20:01:55.787Z,5.67
2022-12-09T20:07:08.121Z,5.75
2022-12-09T20:09:31.054Z,5.77
2022-12-09T20:11:54.269Z,5.79
2022-12-09T20:14:16.742Z,5.79
2022-12-09T20:16:39.955Z,5.85
2022-12-09T20:19:03.468Z,5.90
2022-12-09T20:21:27.218Z,5.92
2022-12-09T20:23:51.437Z,5.97
2022-12-09T20:26:18.529Z,6.02
2022-12-09T20:28:42.703Z,6.06
2022-12-09T20:31:11.673Z,6.13
2022-12-09T20:33:35.973Z,6.06
2022-12-09T20:36:09.424Z,6.12
2022-12-09T20:38:32.390Z,6.05
2022-12-09T20:40:55.120Z,6.02
2022-12-09T20:43:18.077Z,6.02
2022-12-09T20:45:40.624Z,6.04
2022-12-09T20:48:04.148Z,6.05
2022-12-09T20:50:27.007Z,6.01
2022-12-09T20:52:50.967Z,6.11
2022-12-09T20:55:13.726Z,6.23
2022-12-09T20:57:37.597Z,6.26
2022-12-09T21:00:01.318Z,6.33
2022-12-09T21:02:24.310Z,6.23
2022-12-09T21:04:47.148Z,6.36
2022-12-09T21:07:10.432Z,6.36
2022-12-09T21:09:37.785Z,6.34
2022-12-09T21:12:00.928Z,6.37
2022-12-09T21:14:29.529Z,6.28
2022-12-09T21:16:58.439Z,6.26
2022-12-09T21:19:25.932Z,6.16
2022-12-09T21:21:50.713Z,6.22
2022-12-09T21:24:15.649Z,6.26
2022-12-09T21:26:39.990Z,6.25
2022-12-09T21:29:03.033Z,6.19
2022-12-09T21:31:30.264Z,6.23
2022-12-09T21:33:55.370Z,6.43
2022-12-09T21:36:24.329Z,6.47
2022-12-09T21:38:47.794Z,6.50
2022-12-09T21:41:14.916Z,6.40
2022-12-09T21:43:41.708Z,6.34
2022-12-09T21:46:06.889Z,6.47
2022-12-09T21:48:30.356Z,6.60
2022-12-09T21:51:00.827Z,6.67
2022-12-09T21:53:23.392Z,6.64
2022-12-09T21:55:45.907Z,6.87
2022-12-09T21:58:09.018Z,6.74
2022-12-09T22:00:31.650Z,6.69
2022-12-09T22:02:55.766Z,6.92
2022-12-09T22:05:18.468Z,6.87
2022-12-09T22:07:41.028Z,6.83
2022-12-09T22:10:03.975Z,6.92
2022-12-09T22:12:26.891Z,6.98
2022-12-09T22:14:51.473Z,7.20
2022-12-09T22:17:14.319Z,7.22
2022-12-09T22:19:37.246Z,6.99
2022-12-09T22:22:02.396Z,7.14
2022-12-09T22:24:28.708Z,7.11
2022-12-09T22:26:51.223Z,7.37
2022-12-09T22:29:15.864Z,7.55
2022-12-09T22:31:39.275Z,7.45
2022-12-09T22:34:14.087Z,7.23
2022-12-09T22:36:37.185Z,7.26
2022-12-09T22:39:00.326Z,7.16
2022-12-09T22:41:26.782Z,7.40
2022-12-09T22:43:50.811Z,7.49
2022-12-09T22:46:20.181Z,7.53
2022-12-09T22:48:43.525Z,7.60
2022-12-09T22:51:10.019Z,7.71
2022-12-09T22:53:33.071Z,7.84
2022-12-09T22:55:55.619Z,7.90
2022-12-09T22:58:18.343Z,7.97
2022-12-09T23:00:42.053Z,8.05
2022-12-09T23:03:04.715Z,8.06
2022-12-09T23:05:33.195Z,8.05
2022-12-09T23:07:58.090Z,8.15
2022-12-09T23:10:20.624Z,8.21
2022-12-09T23:12:43.616Z,8.22
2022-12-09T23:15:07.115Z,8.15
2022-12-09T23:17:29.820Z,8.08
2022-12-09T23:19:56.145Z,8.18
2022-12-09T23:22:18.861Z,8.24
2022-12-09T23:24:41.493Z,8.32
2022-12-09T23:27:04.004Z,8.41
2022-12-09T23:29:27.337Z,8.32
2022-12-09T23:31:50.105Z,8.35
2022-12-09T23:34:14.747Z,8.38
2022-12-09T23:36:39.301Z,8.46
2022-12-09T23:39:04.718Z,8.50
2022-12-09T23:41:27.694Z,8.56
2022-12-09T23:43:51.740Z,8.56
2022-12-09T23:46:17.258Z,8.39
2022-12-09T23:48:40.103Z,8.26
2022-12-09T23:51:13.899Z,8.31
2022-12-09T23:53:36.678Z,8.29
2022-12-09T23:55:59.232Z,8.39
2022-12-09T23:58:22.532Z,8.36
